createdAt,value
2024-05-09T00:00:38.977Z,21.90
2024-05-09T00:03:08.249Z,13.43
2024-05-09T00:05:36.382Z,20.13
2024-05-09T00:08:03.840Z,14.70
2024-05-09T00:13:21.104Z,22.95
2024-05-09T00:15:47.637Z,13.32
2024-05-09T00:18:14.423Z,7.95
2024-05-09T00:20:41.593Z,12.93
2024-05-09T00:23:13.589Z,9.93
2024-05-09T00:25:43.010Z,8.68
2024-05-09T00:28:09.788Z,8.50
2024-05-09T00:30:37.364Z,9.30
2024-05-09T00:33:06.271Z,11.60
2024-05-09T00:35:34.270Z,9.82
2024-05-09T00:38:01.237Z,9.93
2024-05-09T00:40:38.781Z,8.88
2024-05-09T00:43:08.023Z,13.60
2024-05-09T00:45:35.596Z,11.23
2024-05-09T00:48:06.204Z,7.53
2024-05-09T00:50:36.879Z,8.48
2024-05-09T00:53:06.087Z,8.10
2024-05-09T00:55:37.483Z,7.80
2024-05-09T00:58:05.151Z,7.03
2024-05-09T01:00:38.432Z,6.53
2024-05-09T01:03:08.257Z,4.55
2024-05-09T01:05:35.702Z,4.95
2024-05-09T01:08:03.175Z,5.05
2024-05-09T01:10:56.291Z,6.13
2024-05-09T01:13:22.891Z,5.25
2024-05-09T01:15:50.131Z,5.40
2024-05-09T01:18:17.132Z,6.72
2024-05-09T01:20:45.325Z,8.90
2024-05-09T01:23:14.740Z,9.23
2024-05-09T01:25:43.410Z,8.50
2024-05-09T01:28:10.033Z,7.63
2024-05-09T01:30:37.798Z,9.00
2024-05-09T01:33:07.281Z,9.20
2024-05-09T01:35:35.732Z,6.35
2024-05-09T01:38:02.626Z,8.02
2024-05-09T01:40:36.824Z,6.30
2024-05-09T01:43:06.212Z,6.72
2024-05-09T01:45:32.942Z,6.40
2024-05-09T01:47:59.863Z,6.03
2024-05-09T01:50:37.273Z,6.50
2024-05-09T01:53:08.106Z,7.63
2024-05-09T01:55:34.813Z,7.20
2024-05-09T01:58:01.402Z,6.65
2024-05-09T02:00:37.840Z,8.88
2024-05-09T02:03:15.262Z,6.97
2024-05-09T02:05:45.544Z,8.55
2024-05-09T02:08:18.156Z,8.40
2024-05-09T02:10:46.753Z,7.82
2024-05-09T02:13:14.159Z,7.13
2024-05-09T02:15:40.668Z,7.65
2024-05-09T02:18:08.566Z,7.30
2024-05-09T02:20:38.136Z,6.38
2024-05-09T02:23:06.177Z,6.63
2024-05-09T02:25:33.278Z,7.53
2024-05-09T02:27:59.932Z,7.43
2024-05-09T02:30:36.549Z,8.02
2024-05-09T02:33:08.068Z,7.45
2024-05-09T02:35:35.376Z,7.10
2024-05-09T02:38:02.115Z,7.85
2024-05-09T02:40:36.145Z,7.43
2024-05-09T02:43:06.048Z,6.82
2024-05-09T02:45:32.878Z,7.65
2024-05-09T02:47:59.781Z,7.65
2024-05-09T02:50:34.266Z,8.45
2024-05-09T02:53:05.699Z,9.85
2024-05-09T02:55:32.714Z,8.95
2024-05-09T02:57:59.450Z,8.27
2024-05-09T03:00:34.684Z,8.57
2024-05-09T03:03:07.920Z,8.05
2024-05-09T03:05:35.892Z,7.32
2024-05-09T03:08:02.620Z,5.85
2024-05-09T03:13:20.312Z,7.90
2024-05-09T03:15:46.900Z,7.07
2024-05-09T03:18:13.918Z,7.38
2024-05-09T03:20:40.806Z,10.55
2024-05-09T03:23:09.233Z,7.93
2024-05-09T03:25:36.681Z,7.30
2024-05-09T03:28:03.611Z,10.63
2024-05-09T03:30:39.194Z,7.03
2024-05-09T03:33:19.998Z,8.25
2024-05-09T03:35:48.157Z,9.35
2024-05-09T03:38:15.205Z,7.28
2024-05-09T03:40:50.103Z,7.05
2024-05-09T03:43:17.879Z,8.20
2024-05-09T03:45:45.564Z,8.68
2024-05-09T03:48:12.692Z,10.18
2024-05-09T03:50:39.513Z,10.95
2024-05-09T03:53:07.126Z,12.82
2024-05-09T03:55:33.664Z,15.57
2024-05-09T03:58:00.248Z,14.27
2024-05-09T04:00:35.142Z,15.38
2024-05-09T04:03:08.212Z,16.48
2024-05-09T04:05:39.372Z,17.30
2024-05-09T04:08:06.281Z,16.33
2024-05-09T04:10:34.610Z,15.32
2024-05-09T04:13:02.767Z,18.13
2024-05-09T04:15:29.686Z,18.25
2024-05-09T04:17:56.492Z,13.70
2024-05-09T04:20:33.804Z,10.75
2024-05-09T04:23:06.351Z,10.48
2024-05-09T04:25:33.383Z,12.48
2024-05-09T04:27:59.980Z,13.68
2024-05-09T04:30:35.969Z,10.48
2024-05-09T04:33:07.692Z,9.50
2024-05-09T04:35:35.880Z,10.20
2024-05-09T04:38:02.694Z,9.25
2024-05-09T04:40:34.069Z,10.27
2024-05-09T04:43:03.957Z,8.07
2024-05-09T04:45:30.612Z,9.88
2024-05-09T04:47:57.498Z,9.75
2024-05-09T04:50:33.802Z,10.02
2024-05-09T04:53:04.637Z,9.38
2024-05-09T04:55:32.923Z,9.90
2024-05-09T04:57:59.515Z,9.95
2024-05-09T05:00:34.179Z,11.05
2024-05-09T05:03:08.428Z,11.27
2024-05-09T05:05:40.076Z,11.68
2024-05-09T05:08:17.426Z,12.13
2024-05-09T05:13:25.021Z,12.70
2024-05-09T05:15:55.785Z,9.30
2024-05-09T05:18:24.244Z,8.25
2024-05-09T05:20:51.500Z,9.45
2024-05-09T05:23:19.968Z,9.77
2024-05-09T05:25:48.176Z,10.43
2024-05-09T05:28:18.031Z,11.02
2024-05-09T05:30:44.951Z,11.60
2024-05-09T05:33:13.599Z,10.05
2024-05-09T05:35:41.687Z,9.52
2024-05-09T05:38:09.173Z,13.25
2024-05-09T05:40:39.916Z,10.75
2024-05-09T05:43:09.762Z,10.52
2024-05-09T05:45:36.654Z,11.15
2024-05-09T05:48:05.446Z,12.52
2024-05-09T05:50:36.374Z,12.52
2024-05-09T05:53:09.366Z,14.07
2024-05-09T05:55:37.391Z,12.10
2024-05-09T05:58:04.202Z,15.65
2024-05-09T06:00:38.108Z,16.77
2024-05-09T06:03:07.425Z,15.20
2024-05-09T06:05:35.187Z,15.43
2024-05-09T06:08:01.984Z,21.77
2024-05-09T06:13:20.488Z,20.33
2024-05-09T06:15:47.032Z,16.58
2024-05-09T06:18:14.026Z,19.85
2024-05-09T06:20:42.890Z,16.52
2024-05-09T06:23:10.663Z,18.40
2024-05-09T06:25:37.733Z,17.55
2024-05-09T06:28:04.839Z,18.65
2024-05-09T06:30:40.090Z,16.85
2024-05-09T06:33:10.749Z,18.05
2024-05-09T06:35:39.195Z,19.58
2024-05-09T06:38:09.249Z,17.98
2024-05-09T06:40:38.973Z,18.85
2024-05-09T06:43:18.707Z,17.17
2024-05-09T06:45:48.460Z,17.27
2024-05-09T06:48:19.482Z,19.73
2024-05-09T06:50:46.865Z,16.42
2024-05-09T06:53:14.881Z,16.77
2024-05-09T06:55:41.892Z,17.95
2024-05-09T06:58:09.119Z,15.55
2024-05-09T07:00:39.660Z,18.92
2024-05-09T07:03:15.551Z,15.65
2024-05-09T07:05:44.820Z,22.38
2024-05-09T07:08:12.200Z,16.05
2024-05-09T07:13:29.871Z,17.17
2024-05-09T07:15:56.435Z,15.93
2024-05-09T07:18:23.182Z,19.80
2024-05-09T07:20:50.687Z,16.92
2024-05-09T07:23:18.704Z,18.60
2024-05-09T07:25:45.580Z,16.75
2024-05-09T07:28:14.790Z,15.25
2024-05-09T07:30:41.989Z,16.50
2024-05-09T07:33:08.730Z,15.30
2024-05-09T07:35:35.667Z,16.17
2024-05-09T07:38:02.426Z,14.82
2024-05-09T07:40:35.432Z,13.55
2024-05-09T07:43:13.144Z,14.05
2024-05-09T07:45:49.387Z,13.98
2024-05-09T07:53:38.947Z,14.40
2024-05-09T07:56:07.814Z,15.98
2024-05-09T07:58:34.745Z,11.57
2024-05-09T08:01:02.725Z,13.32
2024-05-09T08:03:29.382Z,12.48
2024-05-09T08:05:56.192Z,11.95
2024-05-09T08:08:23.301Z,13.18
2024-05-09T08:10:50.983Z,12.63
2024-05-09T08:13:17.793Z,10.27
2024-05-09T08:15:44.735Z,12.05
2024-05-09T08:18:11.920Z,12.27
2024-05-09T08:20:41.121Z,11.68
2024-05-09T08:23:07.731Z,10.98
2024-05-09T08:25:34.257Z,11.18
2024-05-09T08:28:00.990Z,11.80
2024-05-09T08:30:33.678Z,11.20
2024-05-09T08:33:04.486Z,10.38
2024-05-09T08:35:31.762Z,12.60
2024-05-09T08:37:58.495Z,10.68
2024-05-09T08:40:32.890Z,10.38
2024-05-09T08:43:02.973Z,11.13
2024-05-09T08:45:31.346Z,10.95
2024-05-09T08:48:01.388Z,10.65
2024-05-09T08:50:36.181Z,11.95
2024-05-09T08:53:05.866Z,10.57
2024-05-09T08:55:32.747Z,11.93
2024-05-09T08:58:01.402Z,9.55
2024-05-09T09:00:35.872Z,12.25
2024-05-09T09:03:06.512Z,12.43
2024-05-09T09:05:38.359Z,10.35
2024-05-09T09:10:36.459Z,11.52
2024-05-09T09:13:05.005Z,12.35
2024-05-09T09:15:32.251Z,11.18
2024-05-09T09:18:00.181Z,12.65
2024-05-09T09:20:34.188Z,10.65
2024-05-09T09:23:04.031Z,9.10
2024-05-09T09:25:30.734Z,10.10
2024-05-09T09:27:58.286Z,10.60
2024-05-09T09:30:35.012Z,10.13
2024-05-09T09:33:05.380Z,9.52
2024-05-09T09:35:32.653Z,11.65
2024-05-09T09:38:02.994Z,10.75
2024-05-09T09:40:41.108Z,11.40
2024-05-09T09:43:18.539Z,9.80
2024-05-09T09:45:46.941Z,9.52
2024-05-09T09:48:15.265Z,10.93
2024-05-09T09:50:42.063Z,10.80
2024-05-09T09:53:10.228Z,10.48
2024-05-09T09:55:37.658Z,9.55
2024-05-09T09:58:05.940Z,9.45
2024-05-09T10:00:34.480Z,10.57
2024-05-09T10:03:01.868Z,8.95
2024-05-09T10:05:30.126Z,10.13
2024-05-09T10:07:58.718Z,8.40
2024-05-09T10:10:32.194Z,7.93
2024-05-09T10:13:06.632Z,11.23
2024-05-09T10:15:50.710Z,8.70
2024-05-09T10:18:22.630Z,8.98
2024-05-09T10:20:49.601Z,7.55
2024-05-09T10:23:26.717Z,7.22
2024-05-09T10:26:04.334Z,8.45
2024-05-09T10:31:08.359Z,7.93
2024-05-09T10:33:49.551Z,9.00
2024-05-09T10:36:20.555Z,9.50
2024-05-09T10:38:48.882Z,7.10
2024-05-09T10:41:17.097Z,8.20
2024-05-09T10:43:43.758Z,8.57
2024-05-09T10:46:11.192Z,7.50
2024-05-09T10:48:38.697Z,7.95
2024-05-09T10:51:05.858Z,8.68
2024-05-09T10:53:39.652Z,7.70
2024-05-09T10:56:06.431Z,9.27
2024-05-09T10:58:33.181Z,9.68
2024-05-09T11:01:01.192Z,12.57
2024-05-09T11:03:29.200Z,9.52
2024-05-09T11:05:57.106Z,10.35
2024-05-09T11:08:24.381Z,8.75
2024-05-09T11:10:52.457Z,9.35
2024-05-09T11:13:32.350Z,8.50
2024-05-09T11:15:59.976Z,8.88
2024-05-09T11:18:32.291Z,7.90
2024-05-09T11:21:02.177Z,7.43
2024-05-09T11:23:32.384Z,7.10
2024-05-09T11:25:59.242Z,9.20
2024-05-09T11:28:28.401Z,10.38
2024-05-09T11:31:08.346Z,7.03
2024-05-09T11:33:40.044Z,10.98
2024-05-09T11:36:07.898Z,9.02
2024-05-09T11:38:34.529Z,8.10
2024-05-09T11:41:02.305Z,10.85
2024-05-09T11:43:28.975Z,9.20
2024-05-09T11:45:57.151Z,8.05
2024-05-09T11:48:24.774Z,9.23
2024-05-09T11:50:51.397Z,11.23
2024-05-09T11:53:17.920Z,10.43
2024-05-09T11:55:44.429Z,9.73
2024-05-09T11:58:12.368Z,10.73
2024-05-09T12:00:39.140Z,10.07
2024-05-09T12:03:06.289Z,10.48
2024-05-09T12:05:34.096Z,10.50
2024-05-09T12:08:01.266Z,9.82
2024-05-09T12:10:33.339Z,11.07
2024-05-09T12:13:04.535Z,9.43
2024-05-09T12:15:32.785Z,9.23
2024-05-09T12:18:02.728Z,9.80
2024-05-09T12:20:36.624Z,9.85
2024-05-09T12:23:05.787Z,11.30
2024-05-09T12:25:32.339Z,9.18
2024-05-09T12:27:59.050Z,11.57
2024-05-09T12:30:35.158Z,12.23
2024-05-09T12:33:05.802Z,11.40
2024-05-09T12:35:32.723Z,9.57
2024-05-09T12:37:59.346Z,10.15
2024-05-09T12:40:34.561Z,11.90
2024-05-09T12:43:04.828Z,13.50
2024-05-09T12:45:31.867Z,12.07
2024-05-09T12:47:58.806Z,11.70
2024-05-09T12:50:32.001Z,11.02
2024-05-09T12:53:00.967Z,10.85
2024-05-09T12:55:28.529Z,8.48
2024-05-09T12:57:57.235Z,11.38
2024-05-09T13:00:31.105Z,11.85
2024-05-09T13:03:00.736Z,9.88
2024-05-09T13:05:27.790Z,11.73
2024-05-09T13:07:56.170Z,9.85
2024-05-09T13:10:29.237Z,10.88
2024-05-09T13:12:59.459Z,11.43
2024-05-09T13:15:26.268Z,12.98
2024-05-09T13:17:53.008Z,10.88
2024-05-09T13:20:28.911Z,11.18
2024-05-09T13:23:01.550Z,13.82
2024-05-09T13:25:28.086Z,13.95
2024-05-09T13:27:55.005Z,10.60
2024-05-09T13:30:29.427Z,11.50
2024-05-09T13:33:05.171Z,10.07
2024-05-09T13:35:32.287Z,10.63
2024-05-09T13:37:58.881Z,13.43
2024-05-09T13:40:32.368Z,9.88
2024-05-09T13:43:01.984Z,9.02
2024-05-09T13:45:28.824Z,9.93
2024-05-09T13:47:55.654Z,11.50
2024-05-09T13:50:31.023Z,9.63
2024-05-09T13:53:01.594Z,10.93
2024-05-09T13:55:28.249Z,10.10
2024-05-09T13:57:55.429Z,9.00
2024-05-09T14:00:37.654Z,9.50
2024-05-09T14:03:08.920Z,10.80
2024-05-09T14:05:35.837Z,11.57
2024-05-09T14:08:03.034Z,12.30
2024-05-09T14:13:20.196Z,12.05
2024-05-09T14:15:47.115Z,12.52
2024-05-09T14:18:14.575Z,11.82
2024-05-09T14:20:42.609Z,11.35
2024-05-09T14:23:09.739Z,12.73
2024-05-09T14:25:40.382Z,11.82
2024-05-09T14:28:09.939Z,10.18
2024-05-09T14:30:38.162Z,10.40
2024-05-09T14:33:07.251Z,11.43
2024-05-09T14:35:34.716Z,11.57
2024-05-09T14:38:01.534Z,9.98
2024-05-09T14:40:38.795Z,9.80
2024-05-09T14:43:10.951Z,11.07
2024-05-09T14:45:37.673Z,11.65
2024-05-09T14:48:04.770Z,11.30
2024-05-09T14:50:36.741Z,10.18
2024-05-09T14:53:06.943Z,10.82
2024-05-09T14:55:35.915Z,14.32
2024-05-09T14:58:03.545Z,11.93
2024-05-09T15:00:35.630Z,9.38
2024-05-09T15:03:03.813Z,12.30
2024-05-09T15:05:30.685Z,9.15
2024-05-09T15:07:58.667Z,11.45
2024-05-09T15:13:16.981Z,9.88
2024-05-09T15:15:44.224Z,10.05
2024-05-09T15:18:11.218Z,11.15
2024-05-09T15:20:38.262Z,10.93
2024-05-09T15:23:06.729Z,9.40
2024-05-09T15:25:34.742Z,11.68
2024-05-09T15:28:01.587Z,11.07
2024-05-09T15:30:31.648Z,11.63
2024-05-09T15:33:01.345Z,11.65
2024-05-09T15:35:28.232Z,17.33
2024-05-09T15:37:55.439Z,11.13
2024-05-09T15:40:31.302Z,10.98
2024-05-09T15:43:05.341Z,12.25
2024-05-09T15:45:32.520Z,12.10
2024-05-09T15:47:59.632Z,10.75
2024-05-09T15:50:36.043Z,9.32
2024-05-09T15:53:07.604Z,8.73
2024-05-09T15:55:35.143Z,11.20
2024-05-09T15:58:02.520Z,12.07
2024-05-09T16:00:37.534Z,11.30
2024-05-09T16:03:07.988Z,14.02
2024-05-09T16:05:34.885Z,13.98
2024-05-09T16:08:01.927Z,12.55
2024-05-09T16:10:33.139Z,15.48
2024-05-09T16:13:01.915Z,11.85
2024-05-09T16:15:28.986Z,11.20
2024-05-09T16:17:56.366Z,10.57
2024-05-09T16:20:34.531Z,13.05
2024-05-09T16:23:06.391Z,13.50
2024-05-09T16:25:33.030Z,13.93
2024-05-09T16:27:59.941Z,12.95
2024-05-09T16:30:33.865Z,14.73
2024-05-09T16:33:03.244Z,15.75
2024-05-09T16:35:30.254Z,13.32
2024-05-09T16:37:57.153Z,13.13
2024-05-09T16:40:30.496Z,15.20
2024-05-09T16:43:04.817Z,13.73
2024-05-09T16:45:31.832Z,13.73
2024-05-09T16:47:59.382Z,16.60
2024-05-09T16:50:31.114Z,14.90
2024-05-09T16:53:00.248Z,15.77
2024-05-09T16:55:27.043Z,16.55
2024-05-09T16:57:54.336Z,15.77
2024-05-09T17:00:31.232Z,17.48
2024-05-09T17:03:06.453Z,17.63
2024-05-09T17:05:33.586Z,17.77
2024-05-09T17:08:01.150Z,20.13
2024-05-09T17:13:19.371Z,16.70
2024-05-09T17:15:46.887Z,15.85
2024-05-09T17:18:14.007Z,17.45
2024-05-09T17:20:40.610Z,18.58
2024-05-09T17:23:13.292Z,17.50
2024-05-09T17:25:41.096Z,23.83
2024-05-09T17:28:09.174Z,20.95
2024-05-09T17:30:38.422Z,21.23
2024-05-09T17:33:08.896Z,20.08
2024-05-09T17:35:36.850Z,18.95
2024-05-09T17:38:05.040Z,17.60
2024-05-09T17:40:35.439Z,17.27
2024-05-09T17:43:05.150Z,16.95
2024-05-09T17:45:32.509Z,17.92
2024-05-09T17:47:59.854Z,17.88
2024-05-09T17:50:34.643Z,18.77
2024-05-09T17:53:03.442Z,17.17
2024-05-09T17:55:30.227Z,19.02
2024-05-09T17:57:57.182Z,18.15
2024-05-09T18:00:36.010Z,18.50
2024-05-09T18:03:06.552Z,19.33
2024-05-09T18:05:35.931Z,19.67
2024-05-09T18:08:03.458Z,21.55
2024-05-09T18:10:35.995Z,18.88
2024-05-09T18:13:06.000Z,17.92
2024-05-09T18:15:33.074Z,20.20
2024-05-09T18:18:00.094Z,17.33
2024-05-09T18:20:37.875Z,19.25
2024-05-09T18:23:10.137Z,18.08
2024-05-09T18:25:36.719Z,18.98
2024-05-09T18:28:03.514Z,18.60
2024-05-09T18:30:34.861Z,19.80
2024-05-09T18:33:04.742Z,20.52
2024-05-09T18:35:32.414Z,19.73
2024-05-09T18:37:58.991Z,17.15
2024-05-09T18:40:32.728Z,18.10
2024-05-09T18:43:03.147Z,19.23
2024-05-09T18:45:29.874Z,18.88
2024-05-09T18:47:56.787Z,18.90
2024-05-09T18:50:32.026Z,24.33
2024-05-09T18:53:03.446Z,17.65
2024-05-09T18:55:29.999Z,20.00
2024-05-09T18:57:56.932Z,20.17
2024-05-09T19:00:33.033Z,18.48
2024-05-09T19:03:05.469Z,19.15
2024-05-09T19:05:33.372Z,19.08
2024-05-09T19:08:00.236Z,18.45
2024-05-09T19:10:33.668Z,19.88
2024-05-09T19:13:04.391Z,19.08
2024-05-09T19:15:34.121Z,19.50
2024-05-09T19:18:00.915Z,19.73
2024-05-09T19:20:33.191Z,21.05
2024-05-09T19:23:01.385Z,18.27
2024-05-09T19:25:27.915Z,21.35
2024-05-09T19:27:54.501Z,20.27
2024-05-09T19:30:29.775Z,21.63
2024-05-09T19:33:04.541Z,22.10
2024-05-09T19:35:31.201Z,18.85
2024-05-09T19:37:57.910Z,20.85
2024-05-09T19:40:30.451Z,19.00
2024-05-09T19:42:59.495Z,19.55
2024-05-09T19:45:26.154Z,20.98
2024-05-09T19:47:52.972Z,16.65
2024-05-09T19:50:26.387Z,19.50
2024-05-09T19:52:59.058Z,18.30
2024-05-09T19:55:25.580Z,19.60
2024-05-09T19:57:52.102Z,21.95
2024-05-09T20:00:25.966Z,20.40
2024-05-09T20:02:56.239Z,18.13
2024-05-09T20:05:23.651Z,14.57
2024-05-09T20:07:50.267Z,17.42
2024-05-09T20:10:23.622Z,15.32
2024-05-09T20:12:53.883Z,17.05
2024-05-09T20:15:20.486Z,14.75
2024-05-09T20:17:47.203Z,15.30
2024-05-09T20:20:24.495Z,16.17
2024-05-09T20:22:59.742Z,17.65
2024-05-09T20:25:26.283Z,18.50
2024-05-09T20:27:52.900Z,18.95
2024-05-09T20:30:28.879Z,18.70
2024-05-09T20:32:59.517Z,21.75
2024-05-09T20:35:26.745Z,20.05
2024-05-09T20:37:53.378Z,20.65
2024-05-09T20:40:28.270Z,22.65
2024-05-09T20:42:58.784Z,23.52
2024-05-09T20:45:25.500Z,25.00
2024-05-09T20:47:52.162Z,23.00
2024-05-09T20:50:27.992Z,20.92
2024-05-09T20:53:02.487Z,19.17
2024-05-09T20:55:30.054Z,20.27
2024-05-09T20:57:57.017Z,17.15
2024-05-09T21:00:30.278Z,17.85
2024-05-09T21:03:05.739Z,17.33
2024-05-09T21:05:32.650Z,18.02
2024-05-09T21:07:59.262Z,16.67
2024-05-09T21:10:27.234Z,18.63
2024-05-09T21:12:56.366Z,19.95
2024-05-09T21:15:23.020Z,18.42
2024-05-09T21:17:49.607Z,19.73
2024-05-09T21:20:20.481Z,20.67
2024-05-09T21:22:50.744Z,20.02
2024-05-09T21:25:17.342Z,19.40
2024-05-09T21:27:44.101Z,20.75
2024-05-09T21:30:18.398Z,20.10
2024-05-09T21:32:50.418Z,20.08
2024-05-09T21:35:17.764Z,21.30
2024-05-09T21:37:44.402Z,20.67
2024-05-09T21:40:16.938Z,19.98
2024-05-09T21:42:50.426Z,21.63
2024-05-09T21:45:17.044Z,18.48
2024-05-09T21:47:43.671Z,18.30
2024-05-09T21:50:18.631Z,18.45
2024-05-09T21:52:49.808Z,18.83
2024-05-09T21:55:16.487Z,19.15
2024-05-09T21:57:43.139Z,22.77
2024-05-09T22:00:25.123Z,20.85
2024-05-09T22:02:59.206Z,18.60
2024-05-09T22:05:25.801Z,18.27
2024-05-09T22:07:52.343Z,16.88
2024-05-09T22:13:09.930Z,18.30
2024-05-09T22:15:39.214Z,18.30
2024-05-09T22:18:08.301Z,20.67
2024-05-09T22:20:38.523Z,20.35
2024-05-09T22:23:07.024Z,20.13
2024-05-09T22:25:33.981Z,19.88
2024-05-09T22:28:01.800Z,20.73
2024-05-09T22:30:35.770Z,20.80
2024-05-09T22:33:09.770Z,19.55
2024-05-09T22:35:38.051Z,19.00
2024-05-09T22:38:04.772Z,17.45
2024-05-09T22:40:42.023Z,16.98
2024-05-09T22:43:17.750Z,17.30
2024-05-09T22:45:44.767Z,19.90
2024-05-09T22:48:11.430Z,20.67
2024-05-09T22:50:38.072Z,21.17
2024-05-09T22:53:05.506Z,21.65
2024-05-09T22:55:32.120Z,21.25
2024-05-09T22:57:58.735Z,20.63
2024-05-09T23:00:31.417Z,22.42
2024-05-09T23:03:03.012Z,20.45
2024-05-09T23:05:30.772Z,20.00
2024-05-09T23:07:57.706Z,18.85
2024-05-09T23:13:15.108Z,17.50
2024-05-09T23:15:41.713Z,21.27
2024-05-09T23:18:08.484Z,18.88
2024-05-09T23:20:38.721Z,20.58
2024-05-09T23:23:10.468Z,21.08
2024-05-09T23:25:38.349Z,20.38
2024-05-09T23:28:05.421Z,20.10
2024-05-09T23:30:37.227Z,20.02
2024-05-09T23:33:07.113Z,22.05
2024-05-09T23:35:33.844Z,20.08
2024-05-09T23:38:00.377Z,20.58
2024-05-09T23:40:37.313Z,20.90
2024-05-09T23:43:07.411Z,20.77
2024-05-09T23:45:34.492Z,20.60
2024-05-09T23:48:01.511Z,20.40
2024-05-09T23:50:34.530Z,21.48
2024-05-09T23:53:04.589Z,20.92
2024-05-09T23:55:32.090Z,20.55
2024-05-09T23:57:59.196Z,30.02
